createdAt,value
2023-02-18T03:15:17.828Z,93622.00
2023-02-18T03:16:17.929Z,93620.00
2023-02-18T03:17:18.502Z,93620.00
2023-02-18T03:18:17.959Z,93620.00
2023-02-18T03:19:18.011Z,93616.00
2023-02-18T03:20:18.056Z,93618.00
2023-02-18T03:21:19.006Z,93614.00
2023-02-18T03:22:18.196Z,93608.00
2023-02-18T03:23:18.228Z,93620.00
2023-02-18T03:24:18.345Z,93608.00
2023-02-18T03:25:18.412Z,93618.00
2023-02-18T03:26:18.389Z,93616.00
2023-02-18T03:27:18.448Z,93606.00
2023-02-18T03:28:18.507Z,93618.00
2023-02-18T03:29:18.559Z,93622.00
2023-02-18T03:30:18.638Z,93614.00
2023-02-18T03:31:18.750Z,93616.00
2023-02-18T03:32:18.793Z,93626.00
2023-02-18T03:33:18.769Z,93614.00
2023-02-18T03:34:18.820Z,93610.00
2023-02-18T03:35:18.862Z,93610.00
2023-02-18T03:36:18.982Z,93614.00
2023-02-18T03:37:18.951Z,93618.00
2023-02-18T03:38:19.024Z,93612.00
2023-02-18T03:39:19.110Z,93610.00
2023-02-18T03:40:19.084Z,93608.00
2023-02-18T03:41:19.101Z,93606.00
2023-02-18T03:42:19.161Z,93604.00
2023-02-18T03:43:19.197Z,93608.00
2023-02-18T03:44:19.231Z,93608.00
2023-02-18T04:07:19.801Z,93593.00
2023-02-18T04:08:19.828Z,93604.00
2023-02-18T04:09:19.833Z,93593.00
2023-02-18T04:10:19.840Z,93604.00
2023-02-18T04:11:19.862Z,93604.00
2023-02-18T04:12:19.871Z,93602.00
2023-02-18T04:13:19.934Z,93606.00
2023-02-18T04:14:19.904Z,93600.00
2023-02-18T04:15:19.917Z,93593.00
2023-02-18T04:16:19.933Z,93581.00
2023-02-18T04:17:19.936Z,93591.00
2023-02-18T04:18:19.946Z,93591.00
2023-02-18T04:19:19.944Z,93593.00
2023-02-18T04:20:19.966Z,93600.00
2023-02-18T04:21:20.030Z,93593.00
2023-02-18T04:22:19.984Z,93583.00
2023-02-18T04:23:19.982Z,93593.00
2023-02-18T04:24:19.998Z,93600.00
2023-02-18T04:25:20.002Z,93591.00
2023-02-18T04:26:20.015Z,93600.00
2023-02-18T04:27:20.018Z,93591.00
2023-02-18T04:28:20.030Z,93583.00
2023-02-18T04:29:20.045Z,93585.00
2023-02-18T04:30:20.102Z,93587.00
2023-02-18T04:31:20.144Z,93577.00
2023-02-18T04:32:20.068Z,93583.00
2023-02-18T04:33:20.137Z,93589.00
2023-02-18T04:34:20.084Z,93583.00
2023-02-18T04:35:20.101Z,93589.00
2023-02-18T04:36:20.191Z,93593.00
2023-02-18T04:37:20.119Z,93602.00
2023-02-18T04:38:20.175Z,93591.00
2023-02-18T04:39:20.226Z,93600.00
2023-02-18T04:40:20.154Z,93593.00
2023-02-18T04:41:20.154Z,93593.00
2023-02-18T04:42:20.183Z,93589.00
2023-02-18T04:43:20.170Z,93593.00
2023-02-18T04:44:20.183Z,93600.00
2023-02-18T04:45:20.258Z,93600.00
2023-02-18T04:46:20.237Z,93600.00
2023-02-18T04:47:20.185Z,93610.00
2023-02-18T04:48:20.184Z,93604.00
2023-02-18T04:49:20.188Z,93604.00
2023-02-18T04:50:20.560Z,93602.00
2023-02-18T04:51:20.193Z,93602.00
2023-02-18T04:52:20.200Z,93589.00
2023-02-18T04:53:20.191Z,93604.00
2023-02-18T04:54:20.279Z,93593.00
2023-02-18T04:55:20.201Z,93604.00
2023-02-18T04:56:20.223Z,93600.00
2023-02-18T04:57:20.218Z,93602.00
2023-02-18T04:58:20.242Z,93593.00
2023-02-18T04:59:20.254Z,93589.00
2023-02-18T05:00:20.261Z,93593.00
2023-02-18T05:01:20.337Z,93587.00
2023-02-18T05:02:20.277Z,93593.00
2023-02-18T05:03:20.288Z,93591.00
2023-02-18T05:04:20.446Z,93591.00
2023-02-18T05:05:20.321Z,93600.00
2023-02-18T05:06:20.329Z,93604.00
2023-02-18T05:07:20.412Z,93608.00
2023-02-18T05:08:20.330Z,93612.00
2023-02-18T05:09:20.337Z,93614.00
2023-02-18T05:10:20.344Z,93604.00
2023-02-18T05:11:20.349Z,93602.00
2023-02-18T05:12:20.352Z,93600.00
2023-02-18T05:13:20.362Z,93612.00
2023-02-18T05:14:20.404Z,93608.00
2023-02-18T05:15:20.409Z,93616.00
2023-02-18T05:16:20.409Z,93604.00
2023-02-18T05:17:20.423Z,93600.00
2023-02-18T05:18:20.442Z,93593.00
2023-02-18T05:19:20.437Z,93606.00
2023-02-18T05:20:20.445Z,93606.00
2023-02-18T05:21:20.450Z,93608.00
2023-02-18T05:22:20.598Z,93606.00
2023-02-18T05:23:20.448Z,93610.00
2023-02-18T05:24:20.455Z,93610.00
2023-02-18T05:25:20.461Z,93614.00
2023-02-18T05:26:20.468Z,93618.00
2023-02-18T05:27:20.469Z,93618.00
2023-02-18T05:28:20.472Z,93614.00
2023-02-18T05:29:20.484Z,93614.00
2023-02-18T05:30:20.532Z,93616.00
2023-02-18T05:31:20.627Z,93616.00
2023-02-18T05:32:21.054Z,93618.00
2023-02-18T05:33:20.497Z,93622.00
2023-02-18T05:34:20.496Z,93622.00
2023-02-18T05:35:20.493Z,93618.00
2023-02-18T05:36:20.497Z,93618.00
2023-02-18T05:57:21.078Z,93620.00
2023-02-18T05:58:20.703Z,93616.00
2023-02-18T05:59:20.706Z,93620.00
2023-02-18T06:00:20.669Z,93620.00
2023-02-18T06:01:20.688Z,93616.00
2023-02-18T06:02:20.704Z,93612.00
2023-02-18T06:03:20.706Z,93616.00
2023-02-18T06:04:20.710Z,93618.00
2023-02-18T06:05:20.717Z,93612.00
2023-02-18T06:06:20.721Z,93626.00
2023-02-18T06:07:20.756Z,93622.00
2023-02-18T06:08:20.739Z,93624.00
2023-02-18T06:09:20.761Z,93622.00
2023-02-18T06:10:20.844Z,93624.00
2023-02-18T06:11:20.771Z,93620.00
2023-02-18T06:12:20.790Z,93624.00
2023-02-18T06:13:20.788Z,93624.00
2023-02-18T06:14:20.797Z,93630.00
2023-02-18T06:15:20.816Z,93628.00
2023-02-18T06:16:20.851Z,93620.00
2023-02-18T06:17:20.855Z,93624.00
2023-02-18T06:18:20.856Z,93620.00
2023-02-18T06:19:20.860Z,93622.00
2023-02-18T06:20:20.929Z,93616.00
2023-02-18T06:21:20.880Z,93624.00
2023-02-18T06:22:20.894Z,93612.00
2023-02-18T06:23:20.902Z,93618.00
2023-02-18T06:24:20.921Z,93618.00
2023-02-18T06:25:20.933Z,93614.00
2023-02-18T06:26:20.941Z,93614.00
2023-02-18T06:27:20.967Z,93620.00
2023-02-18T06:28:20.971Z,93616.00
2023-02-18T06:29:21.009Z,93616.00
2023-02-18T06:30:22.003Z,93616.00
2023-02-18T06:31:21.057Z,93620.00
2023-02-18T06:32:21.277Z,93620.00
2023-02-18T06:33:21.037Z,93618.00
2023-02-18T06:34:21.044Z,93616.00
2023-02-18T06:35:21.052Z,93618.00
2023-02-18T06:36:21.060Z,93620.00
2023-02-18T06:37:21.066Z,93628.00
2023-02-18T06:38:21.085Z,93622.00
2023-02-18T06:39:21.099Z,93616.00
2023-02-18T06:40:21.109Z,93616.00
2023-02-18T06:41:21.107Z,93614.00
2023-02-18T06:42:21.120Z,93616.00
2023-02-18T06:43:21.126Z,93612.00
2023-02-18T06:44:21.111Z,93616.00
2023-02-18T06:45:21.115Z,93608.00
2023-02-18T06:46:21.155Z,93612.00
2023-02-18T06:47:21.123Z,93610.00
2023-02-18T06:48:21.207Z,93624.00
2023-02-18T06:49:21.131Z,93620.00
2023-02-18T06:50:21.141Z,93622.00
2023-02-18T06:51:21.159Z,93624.00
2023-02-18T06:52:21.196Z,93624.00
2023-02-18T06:53:21.162Z,93624.00
2023-02-18T06:54:22.073Z,93620.00
2023-02-18T06:55:21.132Z,93628.00
2023-02-18T06:56:21.128Z,93630.00
2023-02-18T06:57:21.136Z,93626.00
2023-02-18T06:58:21.134Z,93628.00
2023-02-18T06:59:21.141Z,93626.00
2023-02-18T07:00:21.157Z,93626.00
2023-02-18T07:01:21.160Z,93628.00
2023-02-18T07:02:21.157Z,93620.00
2023-02-18T07:03:21.225Z,93628.00
2023-02-18T07:04:21.152Z,93628.00
2023-02-18T07:05:21.162Z,93626.00
2023-02-18T07:06:21.160Z,93626.00
2023-02-18T07:07:21.154Z,93626.00
2023-02-18T07:08:21.153Z,93626.00
2023-02-18T07:09:21.160Z,93626.00
2023-02-18T07:10:21.162Z,93620.00
2023-02-18T07:11:21.190Z,93618.00
2023-02-18T07:12:21.229Z,93616.00
2023-02-18T07:13:21.186Z,93618.00
2023-02-18T07:14:21.195Z,93624.00
2023-02-18T07:15:21.189Z,93624.00
2023-02-18T07:16:21.293Z,93626.00
2023-02-18T07:17:21.236Z,93626.00
2023-02-18T07:18:21.235Z,93632.00
2023-02-18T07:19:21.243Z,93624.00
2023-02-18T07:20:21.250Z,93616.00
2023-02-18T07:21:21.269Z,93618.00
2023-02-18T07:22:21.283Z,93610.00
2023-02-18T07:23:21.287Z,93614.00
2023-02-18T07:24:21.293Z,93622.00
2023-02-18T07:25:23.220Z,93618.00
2023-02-18T07:26:21.318Z,93614.00
2023-02-18T07:27:22.087Z,93608.00
2023-02-18T07:28:21.373Z,93614.00
2023-02-18T07:29:21.428Z,93610.00
2023-02-18T07:30:21.530Z,93608.00
2023-02-18T07:31:21.580Z,93606.00
2023-02-18T07:32:21.559Z,93608.00
2023-02-18T07:33:21.609Z,93606.00
2023-02-18T07:34:21.666Z,93604.00
2023-02-18T07:35:21.735Z,93604.00
2023-02-18T07:36:21.768Z,93602.00
2023-02-18T07:37:21.839Z,93604.00
2023-02-18T07:38:21.894Z,93600.00
2023-02-18T07:39:21.964Z,93602.00
2023-02-18T07:40:22.026Z,93593.00
2023-02-18T07:41:22.090Z,93600.00
2023-02-18T07:42:22.142Z,93600.00
2023-02-18T07:43:22.212Z,93593.00
2023-02-18T07:44:22.290Z,93602.00
2023-02-18T07:45:22.341Z,93600.00
2023-02-18T07:46:22.384Z,93593.00
2023-02-18T07:47:22.437Z,93589.00
2023-02-18T07:48:22.513Z,93600.00
2023-02-18T07:49:22.557Z,93591.00
2023-02-18T07:50:22.614Z,93587.00
2023-02-18T07:51:22.672Z,93591.00
2023-02-18T07:52:22.737Z,93587.00
2023-02-18T07:53:22.809Z,93581.00
2023-02-18T07:54:23.823Z,93577.00
2023-02-18T07:55:22.924Z,93569.00
2023-02-18T07:56:23.061Z,93581.00
2023-02-18T07:57:23.035Z,93583.00
2023-02-18T07:58:23.104Z,93581.00
2023-02-18T07:59:23.179Z,93581.00
2023-02-18T08:00:23.210Z,93581.00
2023-02-18T08:01:23.264Z,93577.00
2023-02-18T08:02:23.370Z,93577.00
2023-02-18T08:03:23.383Z,93565.00
2023-02-18T08:04:23.464Z,93575.00
2023-02-18T08:05:23.488Z,93583.00
2023-02-18T08:06:23.546Z,93573.00
2023-02-18T08:07:23.604Z,93573.00
2023-02-18T08:08:24.598Z,93575.00
2023-02-18T08:09:23.735Z,93577.00
2023-02-18T08:10:23.768Z,93573.00
2023-02-18T08:11:23.810Z,93581.00
2023-02-18T08:12:23.925Z,93575.00
2023-02-18T08:13:23.911Z,93577.00
2023-02-18T08:14:23.964Z,93577.00
2023-02-18T08:15:24.033Z,93579.00
2023-02-18T08:16:24.222Z,93575.00
2023-02-18T08:17:24.112Z,93575.00
2023-02-18T08:18:24.166Z,93583.00
2023-02-18T08:19:24.202Z,93573.00
2023-02-18T08:20:24.252Z,93563.00
2023-02-18T08:21:24.300Z,93571.00
2023-02-18T08:22:24.348Z,93575.00
2023-02-18T08:23:24.373Z,93575.00
2023-02-18T08:24:24.520Z,93575.00
2023-02-18T08:25:29.618Z,93579.00
2023-02-18T08:26:25.440Z,93575.00
2023-02-18T08:27:24.429Z,93583.00
2023-02-18T08:28:24.414Z,93579.00
2023-02-18T08:29:24.407Z,93575.00
2023-02-18T08:30:24.425Z,93581.00
2023-02-18T08:31:24.537Z,93583.00
2023-02-18T08:32:24.382Z,93577.00
2023-02-18T08:33:24.380Z,93577.00
2023-02-18T08:34:25.138Z,93575.00
2023-02-18T08:35:24.373Z,93577.00
2023-02-18T08:36:24.386Z,93573.00
2023-02-18T08:37:24.357Z,93567.00
2023-02-18T08:38:24.352Z,93559.00
2023-02-18T08:39:24.347Z,93559.00
2023-02-18T08:40:24.388Z,93557.00
2023-02-18T08:41:24.437Z,93549.00
2023-02-18T08:42:24.488Z,93555.00
2023-02-18T08:43:24.503Z,93547.00
2023-02-18T08:44:24.525Z,93559.00
2023-02-18T08:45:24.573Z,93557.00
2023-02-18T08:46:33.145Z,93551.00
2023-02-18T10:24:27.831Z,93420.00
2023-02-18T10:25:27.838Z,93420.00
2023-02-18T10:26:27.848Z,93422.00
2023-02-18T10:27:27.895Z,93426.00
2023-02-18T10:28:27.938Z,93420.00
2023-02-18T10:29:27.985Z,93414.00
2023-02-18T10:30:28.153Z,93416.00
2023-02-18T10:31:28.244Z,93416.00
2023-02-18T10:32:28.167Z,93410.00
2023-02-18T10:33:28.237Z,93410.00
2023-02-18T10:34:28.286Z,93404.00
2023-02-18T10:35:28.296Z,93408.00
2023-02-18T10:36:28.295Z,93404.00
2023-02-18T10:37:28.299Z,93410.00
2023-02-18T10:38:28.315Z,93410.00
2023-02-18T10:39:28.324Z,93408.00
2023-02-18T10:40:28.343Z,93398.00
2023-02-18T10:41:28.368Z,93404.00
2023-02-18T10:42:28.369Z,93398.00
2023-02-18T10:43:28.388Z,93400.00
2023-02-18T10:44:28.434Z,93393.00
2023-02-18T10:45:28.476Z,93391.00
2023-02-18T10:46:28.521Z,93397.00
2023-02-18T10:47:28.547Z,93391.00
2023-02-18T10:48:28.627Z,93387.00
2023-02-18T10:49:28.630Z,93379.00
2023-02-18T10:50:28.648Z,93387.00
2023-02-18T10:51:29.681Z,93391.00
2023-02-18T10:52:28.730Z,93389.00
2023-02-18T10:53:28.774Z,93387.00
2023-02-18T10:54:28.821Z,93381.00
2023-02-18T10:55:28.876Z,93385.00
2023-02-18T10:56:28.977Z,93381.00
2023-02-18T10:57:28.995Z,93375.00
2023-02-18T10:58:29.670Z,93375.00
2023-02-18T10:59:29.093Z,93379.00
2023-02-18T11:00:29.143Z,93377.00
2023-02-18T11:01:29.232Z,93371.00
2023-02-18T11:02:29.272Z,93363.00
2023-02-18T11:03:29.401Z,93367.00
2023-02-18T11:04:29.385Z,93365.00
2023-02-18T11:05:29.419Z,93363.00
2023-02-18T11:06:29.494Z,93357.00
2023-02-18T11:07:29.529Z,93367.00
2023-02-18T11:08:29.592Z,93361.00
2023-02-18T11:09:29.665Z,93361.00
2023-02-18T11:10:29.699Z,93361.00
2023-02-18T11:11:29.748Z,93351.00
2023-02-18T11:12:29.755Z,93349.00
2023-02-18T11:13:29.785Z,93336.00
2023-02-18T11:14:29.780Z,93347.00
2023-02-18T11:15:29.788Z,93349.00
2023-02-18T11:16:29.875Z,93345.00
2023-02-18T11:17:29.816Z,93345.00
2023-02-18T11:18:29.838Z,93334.00
2023-02-18T11:19:29.843Z,93330.00
2023-02-18T11:20:29.836Z,93326.00
2023-02-18T11:21:29.844Z,93328.00
2023-02-18T11:22:29.839Z,93328.00
2023-02-18T11:23:29.833Z,93330.00
2023-02-18T11:24:29.839Z,93324.00
2023-02-18T11:25:29.933Z,93324.00
2023-02-18T11:26:29.918Z,93326.00
2023-02-18T11:27:29.844Z,93322.00
2023-02-18T11:28:29.846Z,93322.00
2023-02-18T11:29:30.685Z,93322.00
2023-02-18T11:30:29.939Z,93320.00
2023-02-18T11:31:29.915Z,93320.00
2023-02-18T11:32:29.860Z,93316.00
2023-02-18T11:33:29.869Z,93316.00
2023-02-18T11:34:29.879Z,93316.00
2023-02-18T11:35:29.900Z,93308.00
2023-02-18T11:36:29.903Z,93306.00
2023-02-18T11:37:29.902Z,93305.00
2023-02-18T11:38:29.917Z,93310.00
2023-02-18T11:39:29.912Z,93312.00
2023-02-18T11:40:29.923Z,93306.00
2023-02-18T11:41:29.937Z,93305.00
2023-02-18T11:42:29.937Z,93306.00
2023-02-18T11:43:30.192Z,93301.00
2023-02-18T11:44:29.987Z,93303.00
2023-02-18T11:45:29.989Z,93291.00
2023-02-18T11:46:30.030Z,93289.00
2023-02-18T11:47:30.044Z,93279.00
2023-02-18T11:48:30.120Z,93285.00
2023-02-18T11:49:30.070Z,93293.00
2023-02-18T11:50:30.073Z,93291.00
2023-02-18T12:49:32.387Z,93185.00
2023-02-18T12:50:32.433Z,93199.00
2023-02-18T12:51:32.499Z,93203.00
2023-02-18T12:52:32.574Z,93201.00
2023-02-18T12:53:32.560Z,93191.00
2023-02-18T12:54:32.572Z,93201.00
2023-02-18T12:55:32.624Z,93193.00
2023-02-18T12:56:32.643Z,93193.00
2023-02-18T12:57:32.670Z,93193.00
2023-02-18T12:58:32.760Z,93199.00
2023-02-18T12:59:32.697Z,93191.00
2023-02-18T13:00:32.712Z,93189.00
2023-02-18T13:01:32.744Z,93175.00
2023-02-18T13:02:32.714Z,93183.00
2023-02-18T13:03:32.741Z,93181.00
2023-02-18T13:04:34.983Z,93183.00
2023-02-18T13:05:32.739Z,93185.00
2023-02-18T13:06:32.738Z,93187.00
2023-02-18T13:07:32.723Z,93187.00
2023-02-18T13:08:32.729Z,93185.00
2023-02-18T13:09:32.711Z,93187.00
2023-02-18T13:10:32.693Z,93179.00
2023-02-18T13:11:32.688Z,93181.00
2023-02-18T13:12:32.690Z,93191.00
2023-02-18T13:13:32.678Z,93179.00
2023-02-18T13:14:32.680Z,93187.00
2023-02-18T13:15:32.663Z,93179.00
2023-02-18T13:16:32.661Z,93181.00
2023-02-18T13:17:32.649Z,93175.00
2023-02-18T13:18:32.649Z,93173.00
2023-02-18T13:19:32.645Z,93173.00
2023-02-18T13:20:32.647Z,93169.00
2023-02-18T13:21:32.633Z,93169.00
2023-02-18T13:22:32.622Z,93171.00
2023-02-18T13:23:32.620Z,93167.00
2023-02-18T13:24:32.611Z,93169.00
2023-02-18T13:25:32.603Z,93169.00
2023-02-18T13:26:32.597Z,93181.00
2023-02-18T13:27:32.619Z,93175.00
2023-02-18T13:28:32.592Z,93173.00
2023-02-18T13:29:32.587Z,93171.00
2023-02-18T13:30:32.614Z,93177.00
2023-02-18T13:31:32.642Z,93175.00
2023-02-18T13:32:32.552Z,93165.00
2023-02-18T13:33:32.551Z,93171.00
2023-02-18T13:34:32.539Z,93175.00
2023-02-18T15:23:33.137Z,93126.00
2023-02-18T15:31:33.408Z,93120.00
2023-02-18T15:32:33.383Z,93122.00
2023-02-18T15:33:33.400Z,93126.00
2023-02-18T15:34:33.419Z,93122.00
2023-02-18T15:35:33.528Z,93124.00
2023-02-18T15:36:33.468Z,93126.00
2023-02-18T15:37:33.494Z,93124.00
2023-02-18T15:38:33.548Z,93126.00
2023-02-18T15:39:33.535Z,93122.00
2023-02-18T15:40:33.557Z,93122.00
2023-02-18T15:41:33.586Z,93122.00
2023-02-18T15:42:33.617Z,93120.00
2023-02-18T15:43:33.630Z,93118.00
2023-02-18T15:44:33.660Z,93118.00
2023-02-18T15:45:33.756Z,93120.00
2023-02-18T15:46:33.795Z,93126.00
2023-02-18T15:47:33.729Z,93126.00
2023-02-18T15:48:33.834Z,93126.00
2023-02-18T15:49:33.775Z,93130.00
2023-02-18T15:50:33.791Z,93124.00
2023-02-18T15:51:33.831Z,93130.00
2023-02-18T15:52:33.869Z,93130.00
2023-02-18T15:53:33.873Z,93136.00
2023-02-18T15:54:33.909Z,93136.00
2023-02-18T15:55:33.937Z,93134.00
2023-02-18T15:56:33.974Z,93138.00
2023-02-18T15:57:34.291Z,93134.00
2023-02-18T15:58:34.308Z,93138.00
2023-02-18T15:59:34.040Z,93140.00
2023-02-18T16:00:34.061Z,93140.00
2023-02-18T16:01:34.802Z,93140.00
2023-02-18T16:02:34.134Z,93136.00
2023-02-18T16:03:34.297Z,93142.00
2023-02-18T16:04:34.237Z,93142.00
2023-02-18T16:05:34.185Z,93144.00
2023-02-18T16:06:34.800Z,93140.00
2023-02-18T16:07:34.239Z,93140.00
2023-02-18T16:08:34.265Z,93140.00
2023-02-18T16:09:34.305Z,93142.00
2023-02-18T16:10:34.306Z,93150.00
2023-02-18T16:11:34.332Z,93150.00
2023-02-18T16:12:34.362Z,93150.00
2023-02-18T16:13:34.402Z,93159.00
2023-02-18T16:14:34.416Z,93156.00
2023-02-18T16:15:34.434Z,93146.00
2023-02-18T16:16:34.492Z,93157.00
2023-02-18T16:17:34.485Z,93157.00
2023-02-18T16:18:34.601Z,93156.00
2023-02-18T16:19:34.530Z,93159.00
2023-02-18T16:20:34.563Z,93157.00
2023-02-18T16:21:34.628Z,93159.00
2023-02-18T16:22:34.603Z,93157.00
2023-02-18T16:23:34.644Z,93159.00
2023-02-18T17:20:36.472Z,93206.00
2023-02-18T17:21:36.497Z,93210.00
2023-02-18T17:22:36.526Z,93210.00
2023-02-18T17:23:36.563Z,93214.00
2023-02-18T17:24:36.589Z,93214.00
2023-02-18T17:25:36.621Z,93212.00
2023-02-18T17:26:36.696Z,93212.00
2023-02-18T17:27:36.708Z,93214.00
2023-02-18T17:28:36.706Z,93218.00
2023-02-18T17:29:36.749Z,93214.00
2023-02-18T17:30:36.772Z,93216.00
2023-02-18T17:31:36.849Z,93212.00
2023-02-18T17:32:36.830Z,93218.00
2023-02-18T17:33:36.872Z,93220.00
2023-02-18T17:34:36.879Z,93218.00
2023-02-18T17:35:36.915Z,93220.00
2023-02-18T17:36:36.947Z,93220.00
2023-02-18T17:37:36.971Z,93224.00
2023-02-18T17:38:37.004Z,93226.00
2023-02-18T17:39:37.029Z,93226.00
2023-02-18T17:40:37.139Z,93230.00
2023-02-18T17:41:37.090Z,93234.00
2023-02-18T17:42:37.120Z,93236.00
2023-02-18T17:43:37.153Z,93234.00
2023-02-18T17:44:37.175Z,93236.00
2023-02-18T17:45:37.236Z,93238.00
2023-02-18T17:46:37.831Z,93238.00
2023-02-18T17:47:37.292Z,93236.00
2023-02-18T17:48:37.316Z,93240.00
2023-02-18T17:49:37.349Z,93234.00
2023-02-18T17:50:37.375Z,93240.00
2023-02-18T17:51:37.402Z,93244.00
2023-02-18T17:52:37.434Z,93242.00
2023-02-18T17:53:37.469Z,93238.00
2023-02-18T18:03:37.811Z,93246.00
2023-02-18T18:04:37.907Z,93246.00
2023-02-18T18:05:37.868Z,93242.00
2023-02-18T18:06:37.898Z,93240.00
2023-02-18T18:07:37.945Z,93240.00
2023-02-18T18:08:37.996Z,93238.00
2023-02-18T18:09:38.345Z,93236.00
2023-02-18T18:10:38.070Z,93238.00
2023-02-18T18:11:38.105Z,93240.00
2023-02-18T18:12:38.834Z,93240.00
2023-02-18T18:13:38.181Z,93244.00
2023-02-18T18:14:38.209Z,93242.00
2023-02-18T18:15:38.251Z,93238.00
2023-02-18T18:16:38.414Z,93236.00
2023-02-18T18:17:38.344Z,93244.00
2023-02-18T18:18:38.352Z,93238.00
2023-02-18T18:19:38.396Z,93240.00
2023-02-18T18:20:38.425Z,93244.00
2023-02-18T18:21:38.476Z,93238.00
2023-02-18T18:22:38.627Z,93248.00
2023-02-18T18:23:38.536Z,93244.00
2023-02-18T18:24:38.596Z,93246.00
2023-02-18T18:25:38.628Z,93246.00
2023-02-18T18:26:38.662Z,93244.00
2023-02-18T18:27:38.692Z,93244.00
2023-02-18T18:28:38.724Z,93248.00
2023-02-18T18:29:39.349Z,93246.00
2023-02-18T18:30:38.900Z,93242.00
2023-02-18T18:31:38.899Z,93244.00
2023-02-18T18:32:38.860Z,93242.00
2023-02-18T18:33:38.886Z,93244.00
2023-02-18T18:34:38.917Z,93244.00
2023-02-18T18:35:38.954Z,93246.00
2023-02-18T18:36:38.983Z,93248.00
2023-02-18T18:37:39.357Z,93246.00
2023-02-18T18:38:39.057Z,93242.00
2023-02-18T18:39:39.082Z,93244.00
2023-02-18T18:40:39.105Z,93246.00
2023-02-18T18:41:39.147Z,93244.00
2023-02-18T18:42:39.184Z,93248.00
2023-02-18T18:43:39.223Z,93250.00
2023-02-18T18:44:39.262Z,93250.00
2023-02-18T18:45:39.367Z,93244.00
2023-02-18T18:46:39.325Z,93246.00
2023-02-18T18:47:39.361Z,93244.00
2023-02-18T18:48:39.404Z,93250.00
2023-02-18T18:49:39.443Z,93250.00
2023-02-18T18:50:39.488Z,93250.00
2023-02-18T18:51:39.511Z,93250.00
2023-02-18T18:52:39.548Z,93246.00
2023-02-18T18:53:39.576Z,93246.00
2023-02-18T18:54:39.603Z,93248.00
2023-02-18T18:55:39.657Z,93244.00
2023-02-18T18:56:39.675Z,93246.00
2023-02-18T18:57:39.700Z,93250.00
2023-02-18T18:58:39.729Z,93248.00
2023-02-18T18:59:39.781Z,93252.00
2023-02-18T19:00:39.825Z,93246.00
2023-02-18T19:01:39.888Z,93248.00
2023-02-18T19:02:39.870Z,93246.00
2023-02-18T19:03:39.906Z,93248.00
2023-02-18T19:04:39.988Z,93250.00
2023-02-18T19:05:39.981Z,93250.00
2023-02-18T19:06:40.028Z,93244.00
2023-02-18T19:07:40.050Z,93250.00
2023-02-18T19:08:40.072Z,93250.00
2023-02-18T19:09:40.109Z,93258.00
2023-02-18T19:10:40.862Z,93254.00
2023-02-18T19:11:40.186Z,93254.00
2023-02-18T19:12:40.298Z,93250.00
2023-02-18T19:13:40.281Z,93252.00
2023-02-18T19:14:40.292Z,93250.00
2023-02-18T19:15:40.321Z,93261.00
2023-02-18T19:16:40.358Z,93248.00
2023-02-18T19:17:40.389Z,93250.00
2023-02-18T19:18:40.418Z,93258.00
2023-02-18T19:19:40.456Z,93254.00
2023-02-18T19:20:42.619Z,93256.00
2023-02-18T19:21:40.530Z,93258.00
2023-02-18T19:22:40.527Z,93254.00
2023-02-18T19:23:40.578Z,93256.00
2023-02-18T19:24:40.592Z,93258.00
2023-02-18T19:25:40.625Z,93256.00
2023-02-18T19:26:40.658Z,93256.00
2023-02-18T19:27:40.680Z,93258.00
2023-02-18T19:28:40.719Z,93254.00
2023-02-18T19:29:40.744Z,93261.00
2023-02-18T19:30:40.805Z,93259.00
2023-02-18T19:31:40.926Z,93263.00
2023-02-18T19:32:40.842Z,93259.00
2023-02-18T19:33:40.879Z,93259.00
2023-02-18T19:34:40.902Z,93254.00
2023-02-18T19:35:40.923Z,93250.00
2023-02-18T19:36:40.976Z,93256.00
2023-02-18T19:37:41.374Z,93256.00
2023-02-18T19:38:41.028Z,93254.00
2023-02-18T19:39:41.044Z,93258.00
2023-02-18T19:40:41.071Z,93254.00
2023-02-18T19:41:41.104Z,93256.00
2023-02-18T19:42:41.202Z,93263.00
2023-02-18T19:43:41.176Z,93256.00
2023-02-18T19:44:41.195Z,93261.00
2023-02-18T19:45:42.816Z,93250.00
2023-02-18T19:46:41.256Z,93258.00
2023-02-18T19:47:41.285Z,93256.00
2023-02-18T19:48:41.877Z,93256.00
2023-02-18T19:49:41.414Z,93250.00
2023-02-18T19:50:41.414Z,93254.00
2023-02-18T19:51:41.407Z,93256.00
2023-02-18T19:52:41.428Z,93259.00
2023-02-18T19:53:41.445Z,93261.00
2023-02-18T19:54:41.493Z,93256.00
2023-02-18T19:55:41.528Z,93256.00
2023-02-18T19:56:41.559Z,93259.00
2023-02-18T19:57:41.597Z,93261.00
2023-02-18T19:58:41.621Z,93259.00
2023-02-18T19:59:41.654Z,93259.00
2023-02-18T20:00:41.682Z,93258.00
2023-02-18T20:01:41.735Z,93259.00
2023-02-18T20:02:41.765Z,93261.00
2023-02-18T20:03:41.780Z,93263.00
2023-02-18T20:04:41.793Z,93269.00
2023-02-18T20:05:41.824Z,93267.00
2023-02-18T20:06:41.850Z,93267.00
2023-02-18T20:07:41.876Z,93265.00
2023-02-18T20:08:41.908Z,93261.00
2023-02-18T20:09:41.932Z,93261.00
2023-02-18T20:10:41.969Z,93261.00
2023-02-18T20:11:42.001Z,93265.00
2023-02-18T20:12:42.029Z,93267.00
2023-02-18T20:13:42.048Z,93265.00
2023-02-18T20:14:42.081Z,93261.00
2023-02-18T20:15:42.158Z,93263.00
2023-02-18T20:16:42.141Z,93261.00
2023-02-18T20:17:42.163Z,93261.00
2023-02-18T20:18:42.190Z,93263.00
2023-02-18T20:19:42.218Z,93263.00
2023-02-18T20:20:42.256Z,93261.00
2023-02-18T20:21:42.275Z,93263.00
2023-02-18T20:22:42.312Z,93267.00
2023-02-18T20:23:42.323Z,93265.00
2023-02-18T20:24:42.367Z,93267.00
2023-02-18T20:25:42.395Z,93267.00
2023-02-18T20:26:42.419Z,93273.00
2023-02-18T20:27:58.187Z,93273.00
2023-02-18T20:28:43.454Z,93273.00
2023-02-18T20:29:42.436Z,93271.00
2023-02-18T20:30:42.426Z,93267.00
2023-02-18T20:31:42.551Z,93265.00
2023-02-18T20:32:42.419Z,93271.00
2023-02-18T20:33:42.408Z,93271.00
2023-02-18T20:34:42.394Z,93271.00
2023-02-18T20:35:42.416Z,93277.00
2023-02-18T20:36:42.381Z,93277.00
2023-02-18T20:37:42.381Z,93269.00
2023-02-18T20:38:42.381Z,93273.00
2023-02-18T20:39:42.365Z,93271.00
2023-02-18T20:40:42.361Z,93267.00
2023-02-18T20:41:42.361Z,93267.00
2023-02-18T20:42:42.902Z,93267.00
2023-02-18T20:43:42.498Z,93271.00
2023-02-18T20:44:42.455Z,93273.00
2023-02-18T20:45:42.488Z,93271.00
2023-02-18T20:46:42.597Z,93271.00
2023-02-18T20:47:42.563Z,93275.00
2023-02-18T20:48:42.660Z,93273.00
2023-02-18T20:49:42.639Z,93265.00
2023-02-18T20:50:42.655Z,93271.00
2023-02-18T20:51:42.699Z,93271.00
2023-02-18T20:52:42.729Z,93273.00
2023-02-18T20:53:42.767Z,93269.00
2023-02-18T20:54:42.786Z,93271.00
2023-02-18T20:55:42.819Z,93269.00
2023-02-18T20:56:42.849Z,93269.00
2023-02-18T20:57:42.888Z,93273.00
2023-02-18T20:58:42.915Z,93275.00
2023-02-18T20:59:42.950Z,93275.00
2023-02-18T21:00:42.975Z,93277.00
2023-02-18T21:01:43.079Z,93273.00
2023-02-18T21:02:43.056Z,93277.00
2023-02-18T21:03:43.079Z,93267.00
2023-02-18T21:04:43.120Z,93271.00
2023-02-18T21:05:43.142Z,93269.00
2023-02-18T21:06:43.179Z,93267.00
2023-02-18T21:07:43.227Z,93265.00
2023-02-18T21:08:43.253Z,93269.00
2023-02-18T21:09:43.289Z,93273.00
2023-02-18T21:10:43.314Z,93273.00
2023-02-18T21:11:43.352Z,93273.00
2023-02-18T21:12:43.370Z,93267.00
2023-02-18T21:13:43.394Z,93269.00
2023-02-18T21:14:44.404Z,93271.00
2023-02-18T21:15:44.474Z,93271.00
2023-02-18T21:16:43.511Z,93267.00